Time;durP1;ratioP1;P1;durP2;ratioP2;P2;SDS_P1;SDS_P2;PMS_P1;PMS_P2;Temp;Humidity;BMP_temperature;BMP_pressure;BME280_temperature;BME280_humidity;BME280_pressure;Samples;Min_cycle;Max_cycle;Signal;HPM_P1;HPM_P2
2024/03/27 00:01:20;;;;;;;6.40;4.43;;;;;;;9.04;92.08;99095.31;5092285;28;20012;-40
2024/03/27 00:03:46;;;;;;;6.55;4.57;;;;;;;9.26;92.00;99097.69;5092181;28;20480;-40
2024/03/27 00:06:11;;;;;;;5.72;4.22;;;;;;;9.08;89.64;99103.66;5091918;28;20396;-40
2024/03/27 00:08:37;;;;;;;5.57;4.10;;;;;;;9.03;90.34;99099.00;5092132;28;20501;-39
2024/03/27 00:11:03;;;;;;;5.75;3.95;;;;;;;9.09;90.14;99084.06;5092065;28;20048;-40
2024/03/27 00:13:28;;;;;;;6.20;4.35;;;;;;;9.00;89.11;99086.13;5092052;28;20027;-40
2024/03/27 00:15:54;;;;;;;6.20;4.45;;;;;;;8.73;91.60;99072.94;5091927;28;20012;-40
2024/03/27 00:18:21;;;;;;;6.35;4.53;;;;;;;8.87;90.74;99076.38;5091753;28;20080;-40
2024/03/27 00:20:46;;;;;;;9.23;4.47;;;;;;;9.13;89.71;99078.13;5091853;28;20254;-40
2024/03/27 00:23:15;;;;;;;6.15;4.45;;;;;;;9.14;89.55;99079.75;5091943;28;20031;-41
2024/03/27 00:25:41;;;;;;;5.93;4.30;;;;;;;8.94;89.52;99087.78;5091954;28;20031;-40
2024/03/27 00:28:07;;;;;;;6.00;4.05;;;;;;;9.20;88.56;99088.72;5091265;28;20471;-40
2024/03/27 00:30:32;;;;;;;5.50;3.97;;;;;;;9.24;87.60;99089.94;5091718;28;20067;-40
2024/03/27 00:32:59;;;;;;;5.18;4.03;;;;;;;9.36;86.79;99090.88;5091584;28;20498;-40
2024/03/27 00:35:24;;;;;;;5.68;4.10;;;;;;;9.22;88.43;99093.84;5091254;28;20028;-40
2024/03/27 00:37:52;;;;;;;5.95;4.30;;;;;;;9.12;87.34;99087.13;5091560;28;20055;-40
2024/03/27 00:40:18;;;;;;;6.63;4.13;;;;;;;9.00;88.47;99086.13;5091486;28;20032;-40
2024/03/27 00:42:44;;;;;;;6.25;4.00;;;;;;;8.96;88.65;99067.16;5091728;28;20070;-41
2024/03/27 00:45:10;;;;;;;5.68;3.90;;;;;;;9.14;88.02;99076.31;5091331;28;20427;-38
2024/03/27 00:47:35;;;;;;;5.88;3.83;;;;;;;9.33;86.94;99070.09;5091209;28;20047;-41
2024/03/27 00:50:01;;;;;;;6.95;4.20;;;;;;;9.17;87.48;99067.91;5075941;28;20043;-40
2024/03/27 00:52:26;;;;;;;7.15;4.10;;;;;;;9.19;87.31;99081.78;5089296;28;20016;-39
2024/03/27 00:54:52;;;;;;;6.32;4.30;;;;;;;9.12;86.60;99079.16;5091139;28;20129;-36
2024/03/27 00:57:18;;;;;;;4.72;3.83;;;;;;;9.17;86.90;99075.88;5090505;28;20028;-39
2024/03/27 00:59:44;;;;;;;6.78;4.15;;;;;;;9.30;85.63;99061.72;5090681;28;20048;-37
2024/03/27 01:02:09;;;;;;;6.20;4.00;;;;;;;9.46;85.52;99057.75;5090698;28;20069;-38
2024/03/27 01:04:35;;;;;;;5.22;3.67;;;;;;;9.03;86.90;99066.34;5090717;28;20104;-38
2024/03/27 01:07:00;;;;;;;6.57;4.07;;;;;;;9.18;86.68;99049.13;5090095;28;20086;-39
2024/03/27 01:09:25;;;;;;;6.47;4.18;;;;;;;9.17;86.58;99051.97;5090496;28;20020;-39
2024/03/27 01:11:51;;;;;;;7.30;4.13;;;;;;;9.10;86.97;99062.63;5090534;28;20028;-39
2024/03/27 01:14:16;;;;;;;6.32;4.13;;;;;;;9.22;85.87;99070.75;5090641;28;20020;-39
2024/03/27 01:16:42;;;;;;;5.57;3.97;;;;;;;9.15;86.23;99069.94;5090742;28;20099;-40
2024/03/27 01:19:07;;;;;;;7.10;4.30;;;;;;;9.29;85.60;99066.22;5090452;28;20302;-39
2024/03/27 01:21:33;;;;;;;6.57;4.38;;;;;;;9.27;85.02;99070.94;5090586;28;20545;-38
2024/03/27 01:23:58;;;;;;;6.78;4.40;;;;;;;9.24;85.14;99060.72;5090898;28;20031;-39
2024/03/27 01:26:24;;;;;;;5.68;3.83;;;;;;;8.92;86.05;99068.59;5090143;28;20527;-39
2024/03/27 01:28:49;;;;;;;5.75;4.05;;;;;;;9.12;85.63;99065.06;5090283;28;20020;-39
2024/03/27 01:31:15;;;;;;;7.13;4.35;;;;;;;9.01;85.42;99074.50;5090388;28;20584;-38
2024/03/27 01:33:40;;;;;;;7.43;3.72;;;;;;;8.98;84.94;99072.25;5090618;28;20084;-39
2024/03/27 01:36:06;;;;;;;5.90;4.38;;;;;;;8.95;85.89;99076.16;5090715;28;20032;-39
2024/03/27 01:38:31;;;;;;;7.68;4.45;;;;;;;9.29;84.92;99066.22;5090653;28;20035;-39
2024/03/27 01:40:57;;;;;;;6.15;4.47;;;;;;;9.51;83.31;99068.56;5090449;28;20146;-39
2024/03/27 01:43:22;;;;;;;6.45;4.20;;;;;;;9.43;83.47;99066.97;5090207;28;20096;-38
2024/03/27 01:45:47;;;;;;;9.10;4.20;;;;;;;9.48;84.12;99069.81;5090333;28;20051;-37
2024/03/27 01:48:13;;;;;;;6.22;4.35;;;;;;;9.51;83.04;99080.00;5090421;28;20020;-36
2024/03/27 01:50:39;;;;;;;5.90;4.38;;;;;;;9.52;83.04;99078.97;5090106;28;20032;-39
2024/03/27 01:53:08;;;;;;;6.85;4.03;;;;;;;9.47;83.44;99086.75;5090208;28;20024;-38
2024/03/27 01:55:33;;;;;;;6.05;4.13;;;;;;;9.43;83.81;99090.88;5089111;28;20035;-39
2024/03/27 01:57:58;;;;;;;5.47;4.07;;;;;;;9.27;83.45;99084.22;5090236;28;20024;-39
2024/03/27 02:00:25;;;;;;;7.20;4.15;;;;;;;9.02;84.48;99077.97;5090117;28;20016;-39
2024/03/27 02:02:50;;;;;;;6.47;4.38;;;;;;;9.04;84.50;99075.91;5090554;28;20020;-39
2024/03/27 02:05:17;;;;;;;5.80;4.07;;;;;;;9.12;83.96;99070.34;5090278;28;20047;-39
2024/03/27 02:07:44;;;;;;;6.85;4.40;;;;;;;9.10;83.70;99067.94;5090196;28;20023;-38
2024/03/27 02:10:10;;;;;;;6.78;4.50;;;;;;;8.84;84.77;99062.72;5090123;28;20020;-40
2024/03/27 02:12:39;;;;;;;6.15;4.20;;;;;;;8.97;83.85;99063.50;5089699;28;20103;-39
2024/03/27 02:15:06;;;;;;;6.25;4.30;;;;;;;9.16;83.59;99067.09;5090091;28;20132;-37
2024/03/27 02:17:31;;;;;;;5.93;4.22;;;;;;;8.99;83.40;99053.47;5089929;28;20024;-38
2024/03/27 02:19:57;;;;;;;8.13;4.57;;;;;;;9.18;82.99;99067.69;5089961;28;20031;-42
2024/03/27 02:22:27;;;;;;;6.03;4.15;;;;;;;8.82;83.98;99056.81;5089818;28;20547;-36
2024/03/27 02:25:12;;;;;;;6.78;4.20;;;;;;;9.33;82.29;99062.13;5090134;28;20032;-37
2024/03/27 02:27:38;;;;;;;6.85;4.32;;;;;;;9.14;82.58;99060.38;5089756;28;20065;-39
2024/03/27 02:30:04;;;;;;;6.00;3.92;;;;;;;9.07;83.17;99059.56;5091510;28;20054;-39
2024/03/27 02:32:29;;;;;;;6.43;4.10;;;;;;;9.18;82.44;99065.03;5093917;28;20040;-37
2024/03/27 02:34:54;;;;;;;6.53;4.38;;;;;;;9.21;82.69;99053.16;5094153;28;20028;-39
2024/03/27 02:37:20;;;;;;;6.90;4.28;;;;;;;8.91;83.38;99048.41;5093651;28;20056;-39
2024/03/27 02:39:45;;;;;;;5.95;4.13;;;;;;;8.91;83.76;99037.78;5093862;28;20448;-39
2024/03/27 02:42:10;;;;;;;6.35;4.40;;;;;;;9.03;83.10;99050.41;5092530;28;20016;-39
2024/03/27 02:44:36;;;;;;;6.15;4.28;;;;;;;8.87;83.99;99052.50;5093820;28;20053;-39
2024/03/27 02:47:01;;;;;;;6.88;4.30;;;;;;;9.05;83.03;99051.81;5093861;28;20068;-39
2024/03/27 02:49:27;;;;;;;6.90;4.20;;;;;;;9.14;82.47;99049.75;5093580;28;20020;-39
2024/03/27 02:51:54;;;;;;;5.53;4.18;;;;;;;9.09;82.03;99054.88;5093233;28;20400;-39
2024/03/27 02:54:19;;;;;;;6.22;4.40;;;;;;;8.86;83.41;99048.22;5093418;28;20409;-39
2024/03/27 02:56:44;;;;;;;6.38;4.32;;;;;;;8.83;83.45;99058.44;5093311;28;20126;-40
2024/03/27 02:59:10;;;;;;;6.70;4.22;;;;;;;9.05;82.54;99062.44;5093738;28;20069;-39
2024/03/27 03:01:35;;;;;;;5.53;4.35;;;;;;;8.83;83.26;99066.38;5093645;28;20027;-39
2024/03/27 03:04:01;;;;;;;6.57;4.43;;;;;;;8.90;83.45;99060.03;5093238;28;20020;-39
2024/03/27 03:06:26;;;;;;;6.35;4.57;;;;;;;8.71;84.22;99066.22;5093167;28;20487;-40
2024/03/27 03:08:51;;;;;;;6.63;4.65;;;;;;;8.79;84.00;99061.47;5093390;28;20062;-39
2024/03/27 03:11:17;;;;;;;6.75;4.75;;;;;;;8.45;85.69;99070.53;5092578;28;20124;-40
2024/03/27 03:13:43;;;;;;;10.52;4.68;;;;;;;8.81;84.28;99061.28;5093158;28;20028;-40
2024/03/27 03:16:09;;;;;;;6.78;4.68;;;;;;;9.00;83.88;99067.56;5092667;28;20329;-40
2024/03/27 03:18:35;;;;;;;7.38;4.68;;;;;;;9.13;82.81;99070.16;5093197;28;20073;-39
2024/03/27 03:21:05;;;;;;;7.07;5.07;;;;;;;8.80;83.52;99064.97;5093156;28;20024;-40
2024/03/27 03:23:31;;;;;;;7.43;5.00;;;;;;;8.57;85.04;99062.78;5079252;28;20039;-37
2024/03/27 03:25:56;;;;;;;7.25;4.85;;;;;;;8.39;86.11;99066.03;5072876;28;20480;-38
2024/03/27 03:28:22;;;;;;;11.05;5.30;;;;;;;9.02;83.75;99070.81;5072528;28;20031;-40
2024/03/27 03:30:47;;;;;;;7.53;4.85;;;;;;;8.78;84.21;99062.53;5077994;28;20032;-40
2024/03/27 03:33:13;;;;;;;7.47;5.13;;;;;;;8.88;84.48;99054.13;5092693;28;20024;-39
2024/03/27 03:35:38;;;;;;;9.63;5.47;;;;;;;9.03;83.64;99056.53;5092615;28;20452;-40
2024/03/27 03:38:04;;;;;;;8.35;5.50;;;;;;;9.02;83.82;99070.00;5092780;28;20540;-39
2024/03/27 03:40:47;;;;;;;6.88;4.90;;;;;;;9.28;82.83;99071.75;5085765;28;20416;-40
2024/03/27 03:43:14;;;;;;;8.73;5.60;;;;;;;9.08;83.70;99072.66;5072269;28;20409;-40
2024/03/27 03:45:40;;;;;;;8.13;5.82;;;;;;;9.03;84.30;99069.00;5072263;28;20034;-39
2024/03/27 03:48:05;;;;;;;9.45;6.20;;;;;;;8.84;84.69;99074.13;5072585;28;20110;-37
2024/03/27 03:50:31;;;;;;;9.73;6.15;;;;;;;8.72;85.69;99068.66;5072363;28;20021;-38
2024/03/27 03:52:56;;;;;;;9.18;6.18;;;;;;;8.86;85.07;99071.28;5072083;28;20086;-40
2024/03/27 03:55:22;;;;;;;8.85;5.80;;;;;;;8.91;84.46;99068.81;5089299;28;20024;-40
2024/03/27 03:57:47;;;;;;;8.07;5.40;;;;;;;8.49;86.80;99077.06;5091865;28;20028;-40
2024/03/27 04:00:20;;;;;;;10.27;6.38;;;;;;;8.69;86.18;99076.22;5091346;28;20023;-40
2024/03/27 04:02:48;;;;;;;10.68;5.75;;;;;;;8.80;86.06;99076.38;5092193;28;20024;-37
2024/03/27 04:05:14;;;;;;;9.00;6.00;;;;;;;8.80;86.27;99070.28;5103389;28;20041;-40
2024/03/27 04:07:40;;;;;;;9.70;6.40;;;;;;;8.52;87.26;99074.00;5103135;28;20220;-39
2024/03/27 04:10:06;;;;;;;10.35;6.72;;;;;;;8.44;88.04;99071.56;5101690;28;20039;-39
2024/03/27 04:12:31;;;;;;;11.60;6.80;;;;;;;8.23;89.17;99076.03;5098606;28;20111;-39
2024/03/27 04:14:57;;;;;;;10.95;6.57;;;;;;;8.50;88.35;99075.22;5103036;28;20569;-39
2024/03/27 04:17:22;;;;;;;10.70;6.40;;;;;;;8.72;86.84;99073.13;5101474;28;20388;-39
2024/03/27 04:19:50;;;;;;;11.98;6.75;;;;;;;8.51;87.72;99068.88;5101076;28;20028;-39
2024/03/27 04:22:16;;;;;;;11.38;7.00;;;;;;;8.50;89.58;99078.69;5093150;28;20016;-39
2024/03/27 04:24:45;;;;;;;11.35;7.50;;;;;;;8.64;88.31;99074.19;5092502;28;20020;-39
2024/03/27 04:27:12;;;;;;;12.98;7.80;;;;;;;8.43;89.42;99069.13;5092011;28;20016;-39
2024/03/27 04:29:38;;;;;;;14.05;8.52;;;;;;;8.58;89.33;99067.84;5091931;28;20368;-40
2024/03/27 04:32:04;;;;;;;16.52;7.70;;;;;;;8.45;89.86;99089.09;5091898;28;20105;-38
2024/03/27 04:34:30;;;;;;;13.35;8.32;;;;;;;8.11;92.77;99088.28;5092063;28;20024;-38
2024/03/27 04:36:55;;;;;;;17.40;9.00;;;;;;;8.32;92.43;99089.06;5091928;28;20035;-40
2024/03/27 04:39:22;;;;;;;19.48;9.32;;;;;;;8.16;93.74;99085.81;5091776;28;20042;-37
2024/03/27 04:41:48;;;;;;;14.98;8.75;;;;;;;8.43;92.36;99090.31;5092168;28;20110;-38
2024/03/27 04:44:13;;;;;;;16.17;9.27;;;;;;;8.46;91.67;99084.63;5092032;28;20107;-40
2024/03/27 04:46:39;;;;;;;16.08;8.77;;;;;;;8.33;92.88;99088.06;5091608;28;20437;-38
2024/03/27 04:49:05;;;;;;;13.90;8.90;;;;;;;8.43;93.36;99090.31;5091668;28;20080;-40
2024/03/27 04:51:31;;;;;;;15.35;8.48;;;;;;;8.40;93.10;99087.03;5091233;28;20028;-40
2024/03/27 04:53:56;;;;;;;16.27;9.15;;;;;;;8.54;92.69;99095.81;5091392;28;20101;-39
2024/03/27 04:56:22;;;;;;;14.93;9.30;;;;;;;8.58;93.33;99102.34;5091647;28;20445;-39
2024/03/27 04:58:47;;;;;;;14.73;9.32;;;;;;;8.27;94.35;99086.25;5091843;28;20039;-39
2024/03/27 05:01:13;;;;;;;15.95;9.32;;;;;;;8.18;96.25;99099.66;5090702;28;20056;-39
2024/03/27 05:03:38;;;;;;;15.07;8.85;;;;;;;8.30;95.82;99109.66;5091081;28;20103;-38
2024/03/27 05:06:04;;;;;;;15.32;9.05;;;;;;;8.54;95.13;99103.78;5091609;28;20027;-40
2024/03/27 05:08:29;;;;;;;15.85;9.50;;;;;;;8.49;95.00;99108.91;5091734;28;20027;-40
2024/03/27 05:10:54;;;;;;;16.08;9.55;;;;;;;8.59;94.39;99109.28;5091418;28;20028;-40
2024/03/27 05:13:20;;;;;;;14.23;8.38;;;;;;;8.54;94.17;99098.47;5091146;28;20106;-40
2024/03/27 05:15:46;;;;;;;13.98;9.45;;;;;;;8.73;94.15;99112.72;5091405;28;20031;-39
2024/03/27 05:18:12;;;;;;;16.95;8.82;;;;;;;8.46;95.32;99109.28;5091346;28;20042;-40
2024/03/27 05:20:37;;;;;;;16.67;8.90;;;;;;;8.79;94.11;99116.38;5091723;28;20031;-40
2024/03/27 05:23:03;;;;;;;13.48;8.82;;;;;;;9.08;93.32;99103.66;5091509;28;20036;-39
2024/03/27 05:25:29;;;;;;;13.65;8.35;;;;;;;9.54;90.30;99105.34;5090464;28;20020;-41
2024/03/27 05:27:54;;;;;;;12.93;8.32;;;;;;;9.35;89.30;99099.91;5090034;28;20030;-41
2024/03/27 05:30:20;;;;;;;12.75;8.25;;;;;;;9.80;87.55;99104.34;5089692;28;20027;-39
2024/03/27 05:32:45;;;;;;;12.15;8.15;;;;;;;9.83;87.29;99108.44;5091008;28;20485;-39
2024/03/27 05:35:11;;;;;;;15.98;9.75;;;;;;;9.97;86.13;99110.78;5089104;28;20034;-39
2024/03/27 05:37:36;;;;;;;16.17;9.52;;;;;;;9.79;86.81;99100.88;5089200;28;20412;-39
2024/03/27 05:40:03;;;;;;;15.00;9.75;;;;;;;10.28;85.11;99110.97;5089673;28;20103;-42
2024/03/27 05:42:29;;;;;;;14.05;9.20;;;;;;;9.88;85.17;99111.25;5089401;28;20020;-41
2024/03/27 05:44:55;;;;;;;13.93;9.30;;;;;;;10.10;86.23;99131.16;5089828;28;20331;-40
2024/03/27 05:47:20;;;;;;;11.35;7.82;;;;;;;10.31;83.31;99137.97;5088636;28;20039;-40
2024/03/27 05:49:46;;;;;;;13.05;8.40;;;;;;;10.27;83.50;99118.13;5089998;28;20028;-41
2024/03/27 05:52:12;;;;;;;10.30;6.88;;;;;;;9.96;84.31;99133.09;5091321;28;20020;-40
2024/03/27 05:54:37;;;;;;;10.82;7.13;;;;;;;9.76;85.91;99135.84;5090978;28;20104;-40
2024/03/27 05:57:03;;;;;;;11.38;7.65;;;;;;;9.78;85.20;99135.63;5090927;28;20123;-40
2024/03/27 05:59:29;;;;;;;11.60;7.78;;;;;;;9.55;86.43;99129.00;5090713;28;20482;-41
2024/03/27 06:01:54;;;;;;;12.25;8.05;;;;;;;9.85;85.82;99131.09;5091101;28;20025;-40
2024/03/27 06:04:20;;;;;;;11.23;7.95;;;;;;;10.29;83.56;99148.00;5092601;28;20032;-41
2024/03/27 06:06:45;;;;;;;12.75;8.55;;;;;;;10.60;81.86;99145.53;5095344;28;20036;-42
2024/03/27 06:09:12;;;;;;;13.82;8.98;;;;;;;10.66;81.60;99147.31;5095168;28;20032;-41
2024/03/27 06:11:38;;;;;;;12.35;8.75;;;;;;;10.62;81.85;99138.16;5094675;28;20028;-41
2024/03/27 06:14:04;;;;;;;13.10;8.50;;;;;;;10.88;81.95;99134.44;5094549;28;20027;-41
2024/03/27 06:16:31;;;;;;;11.20;7.75;;;;;;;10.92;80.27;99143.59;5095109;28;20028;-38
2024/03/27 06:18:56;;;;;;;11.30;7.93;;;;;;;11.11;79.51;99150.56;5094514;28;20395;-41
2024/03/27 06:21:22;;;;;;;14.48;8.35;;;;;;;10.92;81.17;99144.41;5094624;28;20016;-41
2024/03/27 06:23:48;;;;;;;12.57;7.80;;;;;;;10.87;80.84;99141.59;5094732;28;20054;-43
2024/03/27 06:26:14;;;;;;;13.70;8.60;;;;;;;10.99;81.36;99135.56;5094468;28;20024;-42
2024/03/27 06:28:40;;;;;;;11.45;7.70;;;;;;;10.96;82.22;99137.59;5094414;28;20425;-40
2024/03/27 06:31:08;;;;;;;13.30;7.65;;;;;;;10.62;83.56;99146.13;5094585;28;20473;-42
2024/03/27 06:33:34;;;;;;;13.60;7.50;;;;;;;11.30;81.63;99148.72;5094216;28;20024;-41
2024/03/27 06:36:00;;;;;;;11.35;7.55;;;;;;;11.93;77.89;99150.19;5094351;28;20031;-41
2024/03/27 06:38:27;;;;;;;11.23;7.50;;;;;;;12.17;76.58;99147.63;5094677;28;20550;-41
2024/03/27 06:40:52;;;;;;;11.60;7.38;;;;;;;12.21;77.16;99140.78;5094464;28;20458;-43
2024/03/27 06:43:20;;;;;;;13.15;8.68;;;;;;;12.18;74.98;99141.22;5094472;28;20549;-40
2024/03/27 06:45:46;;;;;;;15.07;9.13;;;;;;;11.81;77.45;99143.19;5094339;28;20020;-41
2024/03/27 06:48:12;;;;;;;17.38;10.25;;;;;;;11.63;77.59;99158.19;5094474;28;20043;-40
2024/03/27 06:50:38;;;;;;;17.45;10.40;;;;;;;11.63;78.44;99157.34;5094317;28;20027;-41
2024/03/27 06:53:03;;;;;;;18.40;10.88;;;;;;;12.02;77.41;99160.56;5093984;28;20024;-40
2024/03/27 06:55:29;;;;;;;18.70;11.65;;;;;;;11.73;76.75;99163.78;5094506;28;20028;-40
2024/03/27 06:57:55;;;;;;;19.85;12.43;;;;;;;12.26;77.98;99174.75;5093844;28;20066;-39
2024/03/27 07:00:21;;;;;;;21.23;12.25;;;;;;;12.22;75.27;99174.44;5094032;28;20062;-42
2024/03/27 07:02:47;;;;;;;18.55;11.02;;;;;;;11.79;76.10;99169.25;5094166;28;20501;-40
2024/03/27 07:05:13;;;;;;;21.40;12.45;;;;;;;12.33;76.51;99180.81;5093981;28;20024;-44
2024/03/27 07:07:40;;;;;;;20.80;12.52;;;;;;;12.73;72.96;99174.84;5094120;28;20044;-44
2024/03/27 07:10:05;;;;;;;21.30;12.73;;;;;;;12.60;72.70;99185.75;5094056;28;20089;-39
2024/03/27 07:12:31;;;;;;;25.63;13.18;;;;;;;12.81;71.39;99185.19;5093660;28;20032;-40
2024/03/27 07:14:56;;;;;;;24.48;13.32;;;;;;;12.57;72.76;99175.53;5092780;28;20407;-39
2024/03/27 07:17:21;;;;;;;23.35;13.07;;;;;;;12.57;72.53;99188.88;5093361;28;20028;-41
2024/03/27 07:19:47;;;;;;;22.67;13.43;;;;;;;12.12;74.75;99180.28;5093683;28;20044;-39
2024/03/27 07:22:16;;;;;;;19.83;12.57;;;;;;;12.08;73.22;99172.97;5093692;28;20096;-41
2024/03/27 07:24:42;;;;;;;22.10;12.75;;;;;;;11.76;73.24;99173.16;5093654;28;20020;-40
2024/03/27 07:27:08;;;;;;;22.83;12.30;;;;;;;11.71;75.30;99175.72;5093562;28;20112;-40
2024/03/27 07:29:35;;;;;;;20.65;12.38;;;;;;;11.86;75.87;99172.63;5093239;28;20107;-42
2024/03/27 07:32:01;;;;;;;18.75;12.35;;;;;;;12.18;73.00;99175.09;5093606;28;20081;-43
2024/03/27 07:34:27;;;;;;;21.05;12.02;;;;;;;12.38;70.48;99180.94;5093421;28;20411;-42
2024/03/27 07:36:52;;;;;;;20.02;11.68;;;;;;;11.79;74.01;99190.59;5093444;28;20036;-41
2024/03/27 07:39:18;;;;;;;18.33;11.63;;;;;;;12.00;74.41;99192.78;5093438;28;20052;-43
2024/03/27 07:41:43;;;;;;;19.73;11.82;;;;;;;12.39;71.82;99200.44;5093082;28;20050;-41
2024/03/27 07:44:09;;;;;;;17.88;11.68;;;;;;;12.99;70.05;99189.59;5093543;28;20199;-39
2024/03/27 07:46:35;;;;;;;20.30;11.85;;;;;;;13.46;67.84;99189.59;5093204;28;20031;-43
2024/03/27 07:49:00;;;;;;;18.27;12.02;;;;;;;13.75;65.60;99188.81;5093158;28;20020;-40
2024/03/27 07:51:26;;;;;;;19.02;11.60;;;;;;;13.74;67.37;99184.50;5093192;28;20032;-41
2024/03/27 07:53:51;;;;;;;17.83;11.23;;;;;;;13.19;68.64;99189.22;5093272;28;20377;-42
2024/03/27 07:56:17;;;;;;;19.70;12.15;;;;;;;12.95;68.06;99203.66;5092985;28;20024;-41
2024/03/27 07:58:42;;;;;;;17.98;12.85;;;;;;;12.69;69.26;99193.19;5093218;28;20502;-41
2024/03/27 08:01:08;;;;;;;18.63;12.13;;;;;;;13.48;66.98;99192.84;5093125;28;20016;-42
2024/03/27 08:03:33;;;;;;;18.92;12.68;;;;;;;13.53;66.36;99193.97;5093292;28;20526;-41
2024/03/27 08:05:59;;;;;;;18.33;12.18;;;;;;;13.91;64.69;99185.38;5092870;28;20073;-43
2024/03/27 08:08:24;;;;;;;18.17;12.07;;;;;;;13.41;66.04;99189.47;5092878;28;20023;-40
2024/03/27 08:10:59;;;;;;;16.88;10.93;;;;;;;14.11;65.04;99170.75;5092669;28;20337;-42
2024/03/27 08:13:25;;;;;;;16.80;11.10;;;;;;;14.92;63.38;99171.28;5092646;28;20043;-43
2024/03/27 08:15:50;;;;;;;16.58;11.48;;;;;;;15.26;59.86;99163.19;5092816;28;20051;-44
2024/03/27 08:18:16;;;;;;;15.43;11.40;;;;;;;15.30;60.56;99163.50;5092854;28;20055;-42
2024/03/27 08:20:42;;;;;;;17.85;11.55;;;;;;;14.99;61.85;99174.63;5092536;28;20019;-42
2024/03/27 08:23:07;;;;;;;20.90;10.98;;;;;;;15.54;60.19;99170.25;5092578;28;20406;-40
2024/03/27 08:25:34;;;;;;;24.08;11.25;;;;;;;15.64;58.41;99172.22;5092540;28;20020;-46
2024/03/27 08:28:00;;;;;;;16.83;11.18;;;;;;;14.40;62.42;99163.50;5092436;28;20136;-39
2024/03/27 08:30:25;;;;;;;14.98;11.63;;;;;;;14.00;63.05;99157.19;5092015;28;20437;-40
2024/03/27 08:32:51;;;;;;;18.75;12.90;;;;;;;14.24;63.35;99155.22;5092278;28;20023;-42
2024/03/27 08:35:17;;;;;;;21.45;12.55;;;;;;;14.16;64.04;99150.25;5092257;28;20491;-40
2024/03/27 08:37:43;;;;;;;17.05;11.98;;;;;;;14.09;65.36;99152.28;5092383;28;20527;-43
2024/03/27 08:40:12;;;;;;;18.25;12.50;;;;;;;14.52;63.71;99150.03;5092742;28;20476;-42
2024/03/27 08:42:37;;;;;;;17.70;11.82;;;;;;;14.72;64.56;99154.94;5092068;28;20024;-40
2024/03/27 08:45:04;;;;;;;16.70;11.77;;;;;;;15.09;62.60;99152.50;5091925;28;20476;-40
2024/03/27 08:47:30;;;;;;;17.73;11.82;;;;;;;15.00;60.68;99153.97;5092232;28;20016;-42
2024/03/27 08:49:56;;;;;;;19.38;12.20;;;;;;;14.84;61.95;99158.31;5092173;28;20113;-42
2024/03/27 08:52:21;;;;;;;20.77;13.35;;;;;;;14.55;64.31;99157.59;5092190;28;20476;-44
2024/03/27 08:54:47;;;;;;;17.85;12.98;;;;;;;14.58;62.39;99162.47;5092030;28;20031;-40
2024/03/27 08:57:12;;;;;;;18.17;12.77;;;;;;;14.76;62.31;99161.41;5092078;28;20400;-42
2024/03/27 08:59:38;;;;;;;18.80;12.30;;;;;;;14.86;61.57;99143.63;5092320;28;20044;-41
2024/03/27 09:02:03;;;;;;;18.60;12.35;;;;;;;14.79;62.53;99148.34;5092244;28;20466;-40
2024/03/27 09:04:28;;;;;;;18.98;13.02;;;;;;;14.94;63.20;99149.63;5091734;28;20547;-43
2024/03/27 09:06:54;;;;;;;19.35;12.95;;;;;;;15.05;61.75;99152.19;5091960;28;20024;-41
2024/03/27 09:09:19;;;;;;;19.15;12.73;;;;;;;15.02;62.28;99158.06;5091844;28;20020;-42
2024/03/27 09:11:45;;;;;;;19.05;13.02;;;;;;;14.95;61.90;99156.59;5091684;28;20056;-41
2024/03/27 09:14:10;;;;;;;20.67;12.57;;;;;;;14.88;62.95;99150.59;5091940;28;20020;-42
2024/03/27 09:16:35;;;;;;;16.65;12.02;;;;;;;14.89;61.64;99154.88;5091620;28;20420;-43
2024/03/27 09:19:01;;;;;;;18.17;12.45;;;;;;;14.12;64.47;99153.66;5091582;28;20020;-40
2024/03/27 09:21:26;;;;;;;19.45;12.68;;;;;;;14.79;62.73;99148.34;5091303;28;20484;-40
2024/03/27 09:23:52;;;;;;;17.10;12.60;;;;;;;14.91;62.68;99145.56;5091263;28;20016;-42
2024/03/27 09:26:18;;;;;;;16.55;11.77;;;;;;;15.66;59.82;99148.66;5091329;28;20054;-40
2024/03/27 09:28:43;;;;;;;16.75;12.00;;;;;;;15.22;60.17;99144.09;5091543;28;20024;-41
2024/03/27 09:31:09;;;;;;;19.38;12.70;;;;;;;15.84;59.71;99152.91;5091445;28;20027;-41
2024/03/27 09:33:34;;;;;;;16.52;11.70;;;;;;;16.17;58.57;99146.53;5091251;28;20498;-42
2024/03/27 09:35:59;;;;;;;15.65;11.70;;;;;;;16.58;57.38;99146.03;5091181;28;20020;-40
2024/03/27 09:38:25;;;;;;;15.05;11.55;;;;;;;17.07;55.64;99148.53;5090932;28;20214;-41
2024/03/27 09:40:57;;;;;;;15.32;11.60;;;;;;;16.94;54.99;99155.19;5091061;28;20020;-41
2024/03/27 09:43:24;;;;;;;18.55;12.02;;;;;;;16.70;55.24;99153.94;5090972;28;20024;-42
2024/03/27 09:45:50;;;;;;;14.98;11.48;;;;;;;16.77;57.13;99149.97;5091409;28;20024;-40
2024/03/27 09:48:16;;;;;;;15.57;11.52;;;;;;;16.85;55.03;99155.94;5091091;28;20420;-39
2024/03/27 09:50:42;;;;;;;14.48;11.20;;;;;;;16.53;56.60;99148.72;5090827;28;20119;-42
2024/03/27 09:53:11;;;;;;;16.13;11.93;;;;;;;17.15;55.85;99145.38;5091012;28;20373;-41
2024/03/27 09:55:38;;;;;;;15.85;11.20;;;;;;;17.45;54.16;99143.06;5090956;28;20023;-46
2024/03/27 09:58:15;;;;;;;16.98;10.80;;;;;;;18.10;53.33;99133.56;5091159;28;20100;-42
2024/03/27 10:00:44;;;;;;;16.73;11.45;;;;;;;17.59;52.34;99139.63;5091108;28;20095;-39
2024/03/27 10:03:09;;;;;;;15.80;11.30;;;;;;;17.25;53.16;99144.63;5091114;28;20111;-43
2024/03/27 10:05:37;;;;;;;15.68;11.32;;;;;;;16.89;53.77;99141.72;5090684;28;20111;-39
2024/03/27 10:08:03;;;;;;;17.23;12.40;;;;;;;16.74;56.05;99147.78;5090767;28;20096;-40
2024/03/27 10:10:30;;;;;;;17.92;12.85;;;;;;;16.66;54.71;99152.81;5090853;28;20024;-45
2024/03/27 10:12:58;;;;;;;16.73;11.95;;;;;;;16.80;54.78;99143.25;5090869;28;20030;-41
2024/03/27 10:15:24;;;;;;;16.38;12.00;;;;;;;16.89;55.52;99144.41;5091198;28;20051;-40
2024/03/27 10:17:49;;;;;;;15.35;11.70;;;;;;;17.42;54.61;99143.59;5090790;28;20077;-41
2024/03/27 10:20:15;;;;;;;14.50;12.02;;;;;;;17.88;53.18;99128.44;5090620;28;20067;-42
2024/03/27 10:22:40;;;;;;;16.88;12.02;;;;;;;18.66;51.37;99118.50;5090541;28;20099;-40
2024/03/27 10:25:07;;;;;;;15.60;11.50;;;;;;;18.84;50.93;99117.13;5090762;28;20034;-40
2024/03/27 10:27:37;;;;;;;16.17;11.15;;;;;;;18.75;50.38;99112.28;5090842;28;20031;-45
2024/03/27 10:30:03;;;;;;;16.75;11.40;;;;;;;18.19;51.25;99109.63;5090936;28;20032;-41
2024/03/27 10:32:29;;;;;;;13.35;11.15;;;;;;;17.94;52.07;99108.53;5090848;28;20095;-43
2024/03/27 10:34:55;;;;;;;14.48;11.38;;;;;;;18.27;50.43;99110.97;5090828;28;20526;-42
2024/03/27 10:37:21;;;;;;;14.10;11.13;;;;;;;18.13;51.08;99121.47;5090549;28;20131;-40
2024/03/27 10:39:49;;;;;;;17.40;11.88;;;;;;;19.01;49.22;99114.94;5090709;28;20549;-41
2024/03/27 10:42:17;;;;;;;16.52;13.05;;;;;;;17.67;51.87;99108.72;5090765;28;20057;-40
2024/03/27 10:44:46;;;;;;;15.35;12.25;;;;;;;17.45;53.54;99100.03;5090656;28;20076;-39
2024/03/27 10:47:13;;;;;;;16.15;12.15;;;;;;;18.04;54.09;99106.91;5090708;28;20054;-37
2024/03/27 10:49:43;;;;;;;16.70;11.98;;;;;;;18.08;52.52;99094.53;5090422;28;20102;-40
2024/03/27 10:52:09;;;;;;;14.95;10.90;;;;;;;17.82;53.32;99105.25;5093638;28;20031;-43
2024/03/27 10:54:36;;;;;;;14.77;11.52;;;;;;;17.82;53.03;99112.50;5094346;28;20031;-41
2024/03/27 10:57:02;;;;;;;15.13;11.38;;;;;;;18.00;52.47;99098.56;5094228;28;20040;-39
2024/03/27 10:59:29;;;;;;;13.60;11.23;;;;;;;18.85;50.31;99095.31;5094048;28;20032;-42
2024/03/27 11:02:08;;;;;;;14.20;11.20;;;;;;;19.26;50.01;99095.16;5093948;28;20099;-43
2024/03/27 11:04:36;;;;;;;12.90;11.15;;;;;;;19.56;48.54;99087.19;5094094;28;20072;-40
2024/03/27 11:07:04;;;;;;;15.67;12.13;;;;;;;18.76;49.62;99095.00;5094325;28;20040;-42
2024/03/27 11:09:30;;;;;;;13.60;11.52;;;;;;;18.26;51.35;99080.53;5094013;28;20024;-39
2024/03/27 11:11:55;;;;;;;15.75;11.35;;;;;;;18.62;52.15;99076.97;5094278;28;20112;-43
2024/03/27 11:14:21;;;;;;;19.42;11.90;;;;;;;18.96;50.21;99077.19;5094167;28;20519;-42
2024/03/27 11:16:59;;;;;;;15.35;11.70;;;;;;;19.09;49.36;99081.19;5093859;28;20240;-41
2024/03/27 11:19:39;;;;;;;16.33;12.32;;;;;;;17.76;52.72;99082.91;5093903;28;20020;-41
2024/03/27 11:22:15;;;;;;;16.02;12.05;;;;;;;17.75;53.56;99081.28;5093937;28;20049;-40
2024/03/27 11:24:48;;;;;;;18.23;12.25;;;;;;;17.86;54.03;99079.47;5093906;28;20035;-40